Terminal Aerodrome Forecast
Issued by NWS

Home | Current Version | Previous Version | Text Only | Print | Product List | Glossary On
Versions: 1 2 3 4 5 6 7 8 9 10 11 12 13 14 15 16 17 18 19 20 21 22 23 24 25 26 27 28 29 30 31 32 33 34
000
FTUS41 KOKX 211934 AAA
TAFHPN
TAF AMD
KHPN 211934Z 2120/2218 24007KT P6SM SCT035 SCT250
     FM212300 21005KT P6SM SCT035 BKN100
      TEMPO 2123/2203 BKN025
     FM220300 34010G16KT P6SM VCSH BKN035
     FM220600 36005KT P6SM BKN040
     FM221500 04008KT P6SM VCSH BKN030
      AMD NOT SKED=

USA.gov is the U.S. government's official web portal to all federal, state and local government web resources and services.